sensor_id;sensor_type;location;lat;lon;timestamp;temperature;humidity
27803;DHT22;15182;48.174;11.562;2024-01-15T00:01:11;4.20;94.60
27803;DHT22;15182;48.174;11.562;2024-01-15T00:03:39;4.30;94.60
27803;DHT22;15182;48.174;11.562;2024-01-15T00:06:07;4.30;94.20
27803;DHT22;15182;48.174;11.562;2024-01-15T00:08:35;4.30;94.20
27803;DHT22;15182;48.174;11.562;2024-01-15T00:11:04;4.40;94.30
27803;DHT22;15182;48.174;11.562;2024-01-15T00:13:32;4.40;94.30
27803;DHT22;15182;48.174;11.562;2024-01-15T00:16:00;4.40;94.30
27803;DHT22;15182;48.174;11.562;2024-01-15T00:18:27;4.40;94.30
27803;DHT22;15182;48.174;11.562;2024-01-15T00:20:55;4.40;94.30
27803;DHT22;15182;48.174;11.562;2024-01-15T00:23:23;4.50;94.30
27803;DHT22;15182;48.174;11.562;2024-01-15T00:25:51;4.50;94.30
27803;DHT22;15182;48.174;11.562;2024-01-15T00:28:21;4.50;94.30
27803;DHT22;15182;48.174;11.562;2024-01-15T00:30:48;4.50;94.30
27803;DHT22;15182;48.174;11.562;2024-01-15T00:33:16;4.50;94.30
27803;DHT22;15182;48.174;11.562;2024-01-15T00:35:44;4.50;94.60
27803;DHT22;15182;48.174;11.562;2024-01-15T00:38:12;4.50;94.60
27803;DHT22;15182;48.174;11.562;2024-01-15T00:40:40;4.50;94.30
27803;DHT22;15182;48.174;11.562;2024-01-15T00:43:08;4.50;94.20
27803;DHT22;15182;48.174;11.562;2024-01-15T00:45:37;4.50;94.20
27803;DHT22;15182;48.174;11.562;2024-01-15T00:48:05;4.50;94.20
27803;DHT22;15182;48.174;11.562;2024-01-15T00:50:33;4.50;94.10
27803;DHT22;15182;48.174;11.562;2024-01-15T00:53:01;4.50;94.10
27803;DHT22;15182;48.174;11.562;2024-01-15T00:55:29;4.50;94.00
27803;DHT22;15182;48.174;11.562;2024-01-15T00:57:57;4.50;93.90
27803;DHT22;15182;48.174;11.562;2024-01-15T01:00:24;4.50;93.70
27803;DHT22;15182;48.174;11.562;2024-01-15T01:02:54;4.50;93.50
27803;DHT22;15182;48.174;11.562;2024-01-15T01:05:22;4.50;93.30
27803;DHT22;15182;48.174;11.562;2024-01-15T01:07:50;4.50;93.20
27803;DHT22;15182;48.174;11.562;2024-01-15T01:10:17;4.40;92.90
27803;DHT22;15182;48.174;11.562;2024-01-15T01:12:45;4.40;92.90
27803;DHT22;15182;48.174;11.562;2024-01-15T01:15:13;4.30;92.80
27803;DHT22;15182;48.174;11.562;2024-01-15T01:17:41;4.30;92.80
27803;DHT22;15182;48.174;11.562;2024-01-15T01:20:10;4.20;92.80
27803;DHT22;15182;48.174;11.562;2024-01-15T01:22:39;4.20;92.80
27803;DHT22;15182;48.174;11.562;2024-01-15T01:25:07;4.20;92.80
27803;DHT22;15182;48.174;11.562;2024-01-15T01:27:35;4.20;92.70
27803;DHT22;15182;48.174;11.562;2024-01-15T01:30:04;4.20;92.80
27803;DHT22;15182;48.174;11.562;2024-01-15T01:32:33;4.10;92.70
27803;DHT22;15182;48.174;11.562;2024-01-15T01:35:01;4.10;92.70
27803;DHT22;15182;48.174;11.562;2024-01-15T01:37:30;4.10;92.70
27803;DHT22;15182;48.174;11.562;2024-01-15T01:40:00;4.10;92.70
27803;DHT22;15182;48.174;11.562;2024-01-15T01:42:28;4.10;92.70
27803;DHT22;15182;48.174;11.562;2024-01-15T01:44:56;4.00;92.70
27803;DHT22;15182;48.174;11.562;2024-01-15T01:47:24;4.00;92.60
27803;DHT22;15182;48.174;11.562;2024-01-15T01:49:53;4.00;92.80
27803;DHT22;15182;48.174;11.562;2024-01-15T01:52:21;4.00;92.40
27803;DHT22;15182;48.174;11.562;2024-01-15T01:54:52;4.00;92.40
27803;DHT22;15182;48.174;11.562;2024-01-15T01:57:20;4.00;92.30
27803;DHT22;15182;48.174;11.562;2024-01-15T01:59:48;3.90;92.20
27803;DHT22;15182;48.174;11.562;2024-01-15T02:02:16;3.90;92.20
27803;DHT22;15182;48.174;11.562;2024-01-15T02:04:44;3.90;92.20
27803;DHT22;15182;48.174;11.562;2024-01-15T02:07:12;3.90;92.20
27803;DHT22;15182;48.174;11.562;2024-01-15T02:09:41;3.90;92.10
27803;DHT22;15182;48.174;11.562;2024-01-15T02:12:11;3.90;92.10
27803;DHT22;15182;48.174;11.562;2024-01-15T02:14:39;3.80;92.00
27803;DHT22;15182;48.174;11.562;2024-01-15T02:17:07;3.80;92.00
27803;DHT22;15182;48.174;11.562;2024-01-15T02:19:35;3.80;92.00
27803;DHT22;15182;48.174;11.562;2024-01-15T02:22:03;3.80;92.00
27803;DHT22;15182;48.174;11.562;2024-01-15T02:24:32;3.80;92.00
27803;DHT22;15182;48.174;11.562;2024-01-15T02:27:00;3.80;91.90
27803;DHT22;15182;48.174;11.562;2024-01-15T02:29:28;3.80;91.90
27803;DHT22;15182;48.174;11.562;2024-01-15T02:31:56;3.70;91.80
27803;DHT22;15182;48.174;11.562;2024-01-15T02:34:24;3.70;91.80
27803;DHT22;15182;48.174;11.562;2024-01-15T02:36:51;3.70;91.80
27803;DHT22;15182;48.174;11.562;2024-01-15T02:39:19;3.70;91.80
27803;DHT22;15182;48.174;11.562;2024-01-15T02:41:49;3.70;91.80
27803;DHT22;15182;48.174;11.562;2024-01-15T02:44:17;3.60;91.70
27803;DHT22;15182;48.174;11.562;2024-01-15T02:46:44;3.60;91.80
27803;DHT22;15182;48.174;11.562;2024-01-15T02:49:12;3.60;92.20
27803;DHT22;15182;48.174;11.562;2024-01-15T02:51:40;3.60;91.90
27803;DHT22;15182;48.174;11.562;2024-01-15T02:54:08;3.60;91.90
27803;DHT22;15182;48.174;11.562;2024-01-15T02:56:36;3.60;91.80
27803;DHT22;15182;48.174;11.562;2024-01-15T02:59:06;3.60;92.30
27803;DHT22;15182;48.174;11.562;2024-01-15T03:01:34;3.50;91.90
27803;DHT22;15182;48.174;11.562;2024-01-15T03:04:02;3.50;92.00
27803;DHT22;15182;48.174;11.562;2024-01-15T03:06:30;3.50;92.00
27803;DHT22;15182;48.174;11.562;2024-01-15T03:08:57;3.50;92.20
27803;DHT22;15182;48.174;11.562;2024-01-15T03:11:25;3.50;92.10
27803;DHT22;15182;48.174;11.562;2024-01-15T03:13:53;3.50;92.20
27803;DHT22;15182;48.174;11.562;2024-01-15T03:16:22;3.50;92.20
27803;DHT22;15182;48.174;11.562;2024-01-15T03:18:50;3.50;92.20
27803;DHT22;15182;48.174;11.562;2024-01-15T03:21:18;3.50;92.20
27803;DHT22;15182;48.174;11.562;2024-01-15T03:23:46;3.50;92.20
27803;DHT22;15182;48.174;11.562;2024-01-15T03:26:14;3.50;92.20
27803;DHT22;15182;48.174;11.562;2024-01-15T03:28:41;3.50;92.20
27803;DHT22;15182;48.174;11.562;2024-01-15T03:31:09;3.50;92.20
27803;DHT22;15182;48.174;11.562;2024-01-15T03:33:38;3.50;92.20
27803;DHT22;15182;48.174;11.562;2024-01-15T03:36:07;3.50;92.20
27803;DHT22;15182;48.174;11.562;2024-01-15T03:38:40;3.50;92.20
27803;DHT22;15182;48.174;11.562;2024-01-15T03:41:08;3.50;92.20
27803;DHT22;15182;48.174;11.562;2024-01-15T03:43:36;3.50;92.20
27803;DHT22;15182;48.174;11.562;2024-01-15T03:46:04;3.50;92.60
27803;DHT22;15182;48.174;11.562;2024-01-15T03:48:31;3.40;92.20
27803;DHT22;15182;48.174;11.562;2024-01-15T03:51:01;3.50;92.20
27803;DHT22;15182;48.174;11.562;2024-01-15T03:53:28;3.50;92.20
27803;DHT22;15182;48.174;11.562;2024-01-15T03:55:57;3.40;92.20
27803;DHT22;15182;48.174;11.562;2024-01-15T03:58:25;3.40;92.20
27803;DHT22;15182;48.174;11.562;2024-01-15T04:00:52;3.40;92.20
27803;DHT22;15182;48.174;11.562;2024-01-15T04:03:20;3.50;92.30
27803;DHT22;15182;48.174;11.562;2024-01-15T04:05:48;3.40;92.30
27803;DHT22;15182;48.174;11.562;2024-01-15T04:08:17;3.40;92.30
27803;DHT22;15182;48.174;11.562;2024-01-15T04:10:45;3.40;92.30
27803;DHT22;15182;48.174;11.562;2024-01-15T04:13:13;3.40;92.30
27803;DHT22;15182;48.174;11.562;2024-01-15T04:15:41;3.40;92.30
27803;DHT22;15182;48.174;11.562;2024-01-15T04:18:08;3.40;92.30
27803;DHT22;15182;48.174;11.562;2024-01-15T04:20:36;3.40;92.30
27803;DHT22;15182;48.174;11.562;2024-01-15T04:23:04;3.50;92.70
27803;DHT22;15182;48.174;11.562;2024-01-15T04:25:34;3.50;92.30
27803;DHT22;15182;48.174;11.562;2024-01-15T04:28:01;3.50;92.70
27803;DHT22;15182;48.174;11.562;2024-01-15T04:30:29;3.50;92.30
27803;DHT22;15182;48.174;11.562;2024-01-15T04:32:57;3.50;92.30
27803;DHT22;15182;48.174;11.562;2024-01-15T04:35:25;3.50;92.40
27803;DHT22;15182;48.174;11.562;2024-01-15T04:37:53;3.50;92.40
27803;DHT22;15182;48.174;11.562;2024-01-15T04:40:21;3.50;92.30
27803;DHT22;15182;48.174;11.562;2024-01-15T04:42:50;3.50;92.30
27803;DHT22;15182;48.174;11.562;2024-01-15T04:45:18;3.50;92.30
27803;DHT22;15182;48.174;11.562;2024-01-15T04:47:46;3.50;92.30
27803;DHT22;15182;48.174;11.562;2024-01-15T04:50:14;3.50;92.30
27803;DHT22;15182;48.174;11.562;2024-01-15T04:52:41;3.50;92.30
27803;DHT22;15182;48.174;11.562;2024-01-15T04:55:09;3.50;92.30
27803;DHT22;15182;48.174;11.562;2024-01-15T04:57:37;3.50;92.30
27803;DHT22;15182;48.174;11.562;2024-01-15T05:00:08;3.50;92.40
27803;DHT22;15182;48.174;11.562;2024-01-15T05:02:36;3.50;92.30
27803;DHT22;15182;48.174;11.562;2024-01-15T05:05:04;3.50;92.30
27803;DHT22;15182;48.174;11.562;2024-01-15T05:07:32;3.50;92.30
27803;DHT22;15182;48.174;11.562;2024-01-15T05:10:00;3.50;92.30
27803;DHT22;15182;48.174;11.562;2024-01-15T05:12:27;3.50;92.30
27803;DHT22;15182;48.174;11.562;2024-01-15T05:14:55;3.50;92.30
27803;DHT22;15182;48.174;11.562;2024-01-15T05:17:24;3.50;92.30
27803;DHT22;15182;48.174;11.562;2024-01-15T05:19:52;3.50;92.30
27803;DHT22;15182;48.174;11.562;2024-01-15T05:22:20;3.50;92.30
27803;DHT22;15182;48.174;11.562;2024-01-15T05:24:51;3.50;92.40
27803;DHT22;15182;48.174;11.562;2024-01-15T05:27:18;3.50;92.40
27803;DHT22;15182;48.174;11.562;2024-01-15T05:29:46;3.50;92.40
27803;DHT22;15182;48.174;11.562;2024-01-15T05:32:14;3.50;92.40
27803;DHT22;15182;48.174;11.562;2024-01-15T05:34:43;3.50;92.40
27803;DHT22;15182;48.174;11.562;2024-01-15T05:37:11;3.50;92.30
27803;DHT22;15182;48.174;11.562;2024-01-15T05:39:39;3.40;92.30
27803;DHT22;15182;48.174;11.562;2024-01-15T05:42:07;3.50;92.40
27803;DHT22;15182;48.174;11.562;2024-01-15T05:44:35;3.50;92.40
27803;DHT22;15182;48.174;11.562;2024-01-15T05:47:03;3.40;92.40
27803;DHT22;15182;48.174;11.562;2024-01-15T05:49:31;3.40;92.40
27803;DHT22;15182;48.174;11.562;2024-01-15T05:52:00;3.40;92.80
27803;DHT22;15182;48.174;11.562;2024-01-15T05:54:28;3.40;92.40
27803;DHT22;15182;48.174;11.562;2024-01-15T05:56:56;3.40;92.40
27803;DHT22;15182;48.174;11.562;2024-01-15T05:59:24;3.40;92.40
27803;DHT22;15182;48.174;11.562;2024-01-15T06:01:52;3.40;92.40
27803;DHT22;15182;48.174;11.562;2024-01-15T06:04:20;3.40;92.30
27803;DHT22;15182;48.174;11.562;2024-01-15T06:06:48;3.40;92.40
27803;DHT22;15182;48.174;11.562;2024-01-15T06:09:17;3.40;92.40
27803;DHT22;15182;48.174;11.562;2024-01-15T06:11:45;3.50;92.40
27803;DHT22;15182;48.174;11.562;2024-01-15T06:14:12;3.50;92.40
27803;DHT22;15182;48.174;11.562;2024-01-15T06:16:40;3.50;92.40
27803;DHT22;15182;48.174;11.562;2024-01-15T06:19:08;3.50;92.30
27803;DHT22;15182;48.174;11.562;2024-01-15T06:21:36;3.50;92.30
27803;DHT22;15182;48.174;11.562;2024-01-15T06:24:04;3.50;92.30
27803;DHT22;15182;48.174;11.562;2024-01-15T06:26:33;3.50;92.30
27803;DHT22;15182;48.174;11.562;2024-01-15T06:29:01;3.50;92.30
27803;DHT22;15182;48.174;11.562;2024-01-15T06:31:30;3.50;92.30
27803;DHT22;15182;48.174;11.562;2024-01-15T06:33:58;3.50;92.20
27803;DHT22;15182;48.174;11.562;2024-01-15T06:36:26;3.50;92.60
27803;DHT22;15182;48.174;11.562;2024-01-15T06:38:53;3.50;92.50
27803;DHT22;15182;48.174;11.562;2024-01-15T06:41:22;3.60;92.20
27803;DHT22;15182;48.174;11.562;2024-01-15T06:43:52;3.60;92.10
27803;DHT22;15182;48.174;11.562;2024-01-15T06:46:20;3.60;92.10
27803;DHT22;15182;48.174;11.562;2024-01-15T06:48:48;3.60;92.10
27803;DHT22;15182;48.174;11.562;2024-01-15T06:51:16;3.60;92.10
27803;DHT22;15182;48.174;11.562;2024-01-15T06:53:44;3.60;92.10
27803;DHT22;15182;48.174;11.562;2024-01-15T06:56:12;3.60;92.50
27803;DHT22;15182;48.174;11.562;2024-01-15T06:58:40;3.60;92.10
27803;DHT22;15182;48.174;11.562;2024-01-15T07:01:09;3.60;92.10
27803;DHT22;15182;48.174;11.562;2024-01-15T07:03:37;3.60;92.10
27803;DHT22;15182;48.174;11.562;2024-01-15T07:06:05;3.60;92.10
27803;DHT22;15182;48.174;11.562;2024-01-15T07:08:33;3.60;92.10
27803;DHT22;15182;48.174;11.562;2024-01-15T07:11:03;3.60;92.00
27803;DHT22;15182;48.174;11.562;2024-01-15T07:13:31;3.60;92.00
27803;DHT22;15182;48.174;11.562;2024-01-15T07:15:59;3.60;92.00
27803;DHT22;15182;48.174;11.562;2024-01-15T07:18:29;3.60;92.00
27803;DHT22;15182;48.174;11.562;2024-01-15T07:20:57;3.60;92.00
27803;DHT22;15182;48.174;11.562;2024-01-15T07:23:24;3.60;92.40
27803;DHT22;15182;48.174;11.562;2024-01-15T07:25:52;3.60;92.00
27803;DHT22;15182;48.174;11.562;2024-01-15T07:28:20;3.60;92.10
27803;DHT22;15182;48.174;11.562;2024-01-15T07:30:48;3.60;92.10
27803;DHT22;15182;48.174;11.562;2024-01-15T07:33:16;3.70;92.10
27803;DHT22;15182;48.174;11.562;2024-01-15T07:35:44;3.60;92.50
27803;DHT22;15182;48.174;11.562;2024-01-15T07:38:13;3.70;92.20
27803;DHT22;15182;48.174;11.562;2024-01-15T07:40:40;3.70;92.20
27803;DHT22;15182;48.174;11.562;2024-01-15T07:43:08;3.70;92.20
27803;DHT22;15182;48.174;11.562;2024-01-15T07:45:36;3.70;92.20
27803;DHT22;15182;48.174;11.562;2024-01-15T07:48:05;3.70;92.20
27803;DHT22;15182;48.174;11.562;2024-01-15T07:50:33;3.70;92.20
27803;DHT22;15182;48.174;11.562;2024-01-15T07:53:02;3.80;92.30
27803;DHT22;15182;48.174;11.562;2024-01-15T07:55:31;3.70;92.30
27803;DHT22;15182;48.174;11.562;2024-01-15T07:57:59;3.80;92.30
27803;DHT22;15182;48.174;11.562;2024-01-15T08:00:28;3.80;92.30
27803;DHT22;15182;48.174;11.562;2024-01-15T08:02:55;3.80;92.30
27803;DHT22;15182;48.174;11.562;2024-01-15T08:05:23;3.80;92.40
27803;DHT22;15182;48.174;11.562;2024-01-15T08:07:51;3.80;92.70
27803;DHT22;15182;48.174;11.562;2024-01-15T08:10:20;3.80;92.40
27803;DHT22;15182;48.174;11.562;2024-01-15T08:12:48;3.80;92.40
27803;DHT22;15182;48.174;11.562;2024-01-15T08:15:16;3.80;92.40
27803;DHT22;15182;48.174;11.562;2024-01-15T08:17:44;3.90;92.50
27803;DHT22;15182;48.174;11.562;2024-01-15T08:20:12;3.90;92.40
27803;DHT22;15182;48.174;11.562;2024-01-15T08:22:42;3.90;92.40
27803;DHT22;15182;48.174;11.562;2024-01-15T08:25:10;3.90;92.40
27803;DHT22;15182;48.174;11.562;2024-01-15T08:27:40;3.90;92.40
27803;DHT22;15182;48.174;11.562;2024-01-15T08:30:10;3.90;92.80
27803;DHT22;15182;48.174;11.562;2024-01-15T08:32:38;3.90;92.40
27803;DHT22;15182;48.174;11.562;2024-01-15T08:35:08;3.90;92.30
27803;DHT22;15182;48.174;11.562;2024-01-15T08:37:36;3.90;92.30
27803;DHT22;15182;48.174;11.562;2024-01-15T08:40:05;3.90;92.40
27803;DHT22;15182;48.174;11.562;2024-01-15T08:42:33;3.90;92.30
27803;DHT22;15182;48.174;11.562;2024-01-15T08:45:03;4.00;92.30
27803;DHT22;15182;48.174;11.562;2024-01-15T08:47:31;4.00;92.30
27803;DHT22;15182;48.174;11.562;2024-01-15T08:49:59;4.00;92.20
27803;DHT22;15182;48.174;11.562;2024-01-15T08:52:27;4.00;92.20
27803;DHT22;15182;48.174;11.562;2024-01-15T08:54:55;3.90;92.20
27803;DHT22;15182;48.174;11.562;2024-01-15T08:57:23;4.00;92.30
27803;DHT22;15182;48.174;11.562;2024-01-15T08:59:51;4.00;92.30
27803;DHT22;15182;48.174;11.562;2024-01-15T09:02:20;4.00;92.30
27803;DHT22;15182;48.174;11.562;2024-01-15T09:04:48;4.00;92.30
27803;DHT22;15182;48.174;11.562;2024-01-15T09:07:16;4.00;92.30
27803;DHT22;15182;48.174;11.562;2024-01-15T09:09:44;4.10;92.30
27803;DHT22;15182;48.174;11.562;2024-01-15T09:12:11;4.10;92.30
27803;DHT22;15182;48.174;11.562;2024-01-15T09:14:41;4.00;92.30
27803;DHT22;15182;48.174;11.562;2024-01-15T09:17:09;4.10;92.40
27803;DHT22;15182;48.174;11.562;2024-01-15T09:19:38;4.10;92.40
27803;DHT22;15182;48.174;11.562;2024-01-15T09:22:06;4.10;92.30
27803;DHT22;15182;48.174;11.562;2024-01-15T09:24:34;4.10;92.30
27803;DHT22;15182;48.174;11.562;2024-01-15T09:27:02;4.10;92.30
27803;DHT22;15182;48.174;11.562;2024-01-15T09:29:30;4.10;92.30
27803;DHT22;15182;48.174;11.562;2024-01-15T09:31:58;4.10;92.30
27803;DHT22;15182;48.174;11.562;2024-01-15T09:34:26;4.10;92.30
27803;DHT22;15182;48.174;11.562;2024-01-15T09:36:55;4.10;92.30
27803;DHT22;15182;48.174;11.562;2024-01-15T09:39:23;4.20;92.30
27803;DHT22;15182;48.174;11.562;2024-01-15T09:41:51;4.20;92.60
27803;DHT22;15182;48.174;11.562;2024-01-15T09:44:19;4.20;92.30
27803;DHT22;15182;48.174;11.562;2024-01-15T09:46:49;4.20;92.20
27803;DHT22;15182;48.174;11.562;2024-01-15T09:49:17;4.20;92.20
27803;DHT22;15182;48.174;11.562;2024-01-15T09:51:45;4.20;92.20
27803;DHT22;15182;48.174;11.562;2024-01-15T09:54:16;4.20;92.20
27803;DHT22;15182;48.174;11.562;2024-01-15T09:56:45;4.30;92.20
27803;DHT22;15182;48.174;11.562;2024-01-15T09:59:16;4.30;92.20
27803;DHT22;15182;48.174;11.562;2024-01-15T10:01:44;4.30;92.20
27803;DHT22;15182;48.174;11.562;2024-01-15T10:04:14;4.30;92.20
27803;DHT22;15182;48.174;11.562;2024-01-15T10:06:45;4.40;92.10
27803;DHT22;15182;48.174;11.562;2024-01-15T10:09:15;4.40;92.00
27803;DHT22;15182;48.174;11.562;2024-01-15T10:11:45;4.40;92.00
27803;DHT22;15182;48.174;11.562;2024-01-15T10:14:13;4.40;92.00
27803;DHT22;15182;48.174;11.562;2024-01-15T10:16:41;4.50;92.00
27803;DHT22;15182;48.174;11.562;2024-01-15T10:19:09;4.50;92.30
27803;DHT22;15182;48.174;11.562;2024-01-15T10:21:37;4.50;91.90
27803;DHT22;15182;48.174;11.562;2024-01-15T10:24:05;4.50;91.90
27803;DHT22;15182;48.174;11.562;2024-01-15T10:26:35;4.50;91.90
27803;DHT22;15182;48.174;11.562;2024-01-15T10:29:03;4.60;91.90
27803;DHT22;15182;48.174;11.562;2024-01-15T10:31:30;4.50;91.90
27803;DHT22;15182;48.174;11.562;2024-01-15T10:34:10;4.60;91.80
27803;DHT22;15182;48.174;11.562;2024-01-15T10:36:39;4.60;91.70
27803;DHT22;15182;48.174;11.562;2024-01-15T10:39:08;4.60;91.80
27803;DHT22;15182;48.174;11.562;2024-01-15T10:41:37;4.60;91.80
27803;DHT22;15182;48.174;11.562;2024-01-15T10:44:06;4.70;91.70
27803;DHT22;15182;48.174;11.562;2024-01-15T10:46:34;4.70;91.70
27803;DHT22;15182;48.174;11.562;2024-01-15T10:49:02;4.70;91.60
27803;DHT22;15182;48.174;11.562;2024-01-15T10:51:30;4.70;91.90
27803;DHT22;15182;48.174;11.562;2024-01-15T10:53:59;4.70;91.60
27803;DHT22;15182;48.174;11.562;2024-01-15T10:56:28;4.80;91.60
27803;DHT22;15182;48.174;11.562;2024-01-15T10:58:59;4.80;91.50
27803;DHT22;15182;48.174;11.562;2024-01-15T11:01:28;4.80;91.50
27803;DHT22;15182;48.174;11.562;2024-01-15T11:03:57;4.80;91.60
27803;DHT22;15182;48.174;11.562;2024-01-15T11:06:25;4.80;91.50
27803;DHT22;15182;48.174;11.562;2024-01-15T11:08:55;4.90;91.50
27803;DHT22;15182;48.174;11.562;2024-01-15T11:11:25;4.90;91.60
27803;DHT22;15182;48.174;11.562;2024-01-15T11:13:53;5.00;91.60
27803;DHT22;15182;48.174;11.562;2024-01-15T11:16:24;5.00;91.60
27803;DHT22;15182;48.174;11.562;2024-01-15T11:19:02;5.10;91.60
27803;DHT22;15182;48.174;11.562;2024-01-15T11:21:42;5.10;91.50
27803;DHT22;15182;48.174;11.562;2024-01-15T11:24:10;5.10;91.50
27803;DHT22;15182;48.174;11.562;2024-01-15T11:26:44;5.20;91.60
27803;DHT22;15182;48.174;11.562;2024-01-15T11:29:31;5.20;91.60
27803;DHT22;15182;48.174;11.562;2024-01-15T11:32:05;5.20;91.50
27803;DHT22;15182;48.174;11.562;2024-01-15T11:34:53;5.20;91.50
27803;DHT22;15182;48.174;11.562;2024-01-15T11:37:25;5.20;91.30
27803;DHT22;15182;48.174;11.562;2024-01-15T11:39:54;5.10;91.70
27803;DHT22;15182;48.174;11.562;2024-01-15T11:42:23;5.10;91.30
27803;DHT22;15182;48.174;11.562;2024-01-15T11:44:51;5.10;91.70
27803;DHT22;15182;48.174;11.562;2024-01-15T11:50:30;5.10;91.40
27803;DHT22;15182;48.174;11.562;2024-01-15T11:53:01;5.10;91.60
27803;DHT22;15182;48.174;11.562;2024-01-15T11:55:34;5.10;92.00
27803;DHT22;15182;48.174;11.562;2024-01-15T11:58:06;5.10;91.90
27803;DHT22;15182;48.174;11.562;2024-01-15T12:00:39;5.10;91.50
27803;DHT22;15182;48.174;11.562;2024-01-15T12:03:10;5.10;91.40
27803;DHT22;15182;48.174;11.562;2024-01-15T12:05:38;5.10;91.50
27803;DHT22;15182;48.174;11.562;2024-01-15T12:08:08;5.20;91.50
27803;DHT22;15182;48.174;11.562;2024-01-15T12:10:38;5.20;91.40
27803;DHT22;15182;48.174;11.562;2024-01-15T12:13:10;5.20;91.40
27803;DHT22;15182;48.174;11.562;2024-01-15T12:15:39;5.20;91.40
27803;DHT22;15182;48.174;11.562;2024-01-15T12:18:12;5.30;91.50
27803;DHT22;15182;48.174;11.562;2024-01-15T12:20:41;5.30;91.50
27803;DHT22;15182;48.174;11.562;2024-01-15T12:23:10;5.30;91.50
27803;DHT22;15182;48.174;11.562;2024-01-15T12:25:38;5.40;91.90
27803;DHT22;15182;48.174;11.562;2024-01-15T12:28:06;5.40;91.40
27803;DHT22;15182;48.174;11.562;2024-01-15T12:30:34;5.50;91.30
27803;DHT22;15182;48.174;11.562;2024-01-15T12:33:04;5.60;91.20
27803;DHT22;15182;48.174;11.562;2024-01-15T12:35:35;5.60;91.10
27803;DHT22;15182;48.174;11.562;2024-01-15T12:38:03;5.60;91.00
27803;DHT22;15182;48.174;11.562;2024-01-15T12:40:31;5.70;91.00
27803;DHT22;15182;48.174;11.562;2024-01-15T12:43:00;5.70;90.90
27803;DHT22;15182;48.174;11.562;2024-01-15T12:45:30;5.70;90.90
27803;DHT22;15182;48.174;11.562;2024-01-15T12:47:58;5.70;90.90
27803;DHT22;15182;48.174;11.562;2024-01-15T12:50:26;5.70;90.80
27803;DHT22;15182;48.174;11.562;2024-01-15T12:52:56;5.70;91.20
27803;DHT22;15182;48.174;11.562;2024-01-15T12:55:25;5.70;90.90
27803;DHT22;15182;48.174;11.562;2024-01-15T12:57:53;5.70;91.20
27803;DHT22;15182;48.174;11.562;2024-01-15T13:00:21;5.70;91.00
27803;DHT22;15182;48.174;11.562;2024-01-15T13:02:49;5.70;91.10
27803;DHT22;15182;48.174;11.562;2024-01-15T13:05:17;5.80;91.20
27803;DHT22;15182;48.174;11.562;2024-01-15T13:07:45;5.80;91.10
27803;DHT22;15182;48.174;11.562;2024-01-15T13:10:14;5.80;91.10
27803;DHT22;15182;48.174;11.562;2024-01-15T13:12:42;5.80;91.00
27803;DHT22;15182;48.174;11.562;2024-01-15T13:15:10;5.90;91.00
27803;DHT22;15182;48.174;11.562;2024-01-15T13:17:38;5.90;91.00
27803;DHT22;15182;48.174;11.562;2024-01-15T13:20:08;5.90;91.10
27803;DHT22;15182;48.174;11.562;2024-01-15T13:22:37;5.90;91.50
27803;DHT22;15182;48.174;11.562;2024-01-15T13:25:06;5.90;91.10
27803;DHT22;15182;48.174;11.562;2024-01-15T13:27:36;5.80;91.10
27803;DHT22;15182;48.174;11.562;2024-01-15T13:30:05;5.80;91.00
27803;DHT22;15182;48.174;11.562;2024-01-15T13:32:34;5.80;91.00
27803;DHT22;15182;48.174;11.562;2024-01-15T13:35:01;5.90;91.10
27803;DHT22;15182;48.174;11.562;2024-01-15T13:37:31;5.80;91.10
27803;DHT22;15182;48.174;11.562;2024-01-15T13:39:59;5.80;91.20
27803;DHT22;15182;48.174;11.562;2024-01-15T13:42:27;5.80;91.20
27803;DHT22;15182;48.174;11.562;2024-01-15T13:44:56;5.80;91.60
27803;DHT22;15182;48.174;11.562;2024-01-15T13:47:24;5.80;91.20
27803;DHT22;15182;48.174;11.562;2024-01-15T13:49:52;5.90;91.20
27803;DHT22;15182;48.174;11.562;2024-01-15T13:52:20;5.80;91.20
27803;DHT22;15182;48.174;11.562;2024-01-15T13:54:47;5.80;91.20
27803;DHT22;15182;48.174;11.562;2024-01-15T13:57:15;5.80;91.20
27803;DHT22;15182;48.174;11.562;2024-01-15T13:59:44;5.80;91.20
27803;DHT22;15182;48.174;11.562;2024-01-15T14:02:13;5.80;91.30
27803;DHT22;15182;48.174;11.562;2024-01-15T14:04:41;5.80;91.30
27803;DHT22;15182;48.174;11.562;2024-01-15T14:07:08;5.70;91.30
27803;DHT22;15182;48.174;11.562;2024-01-15T14:09:36;5.70;91.30
27803;DHT22;15182;48.174;11.562;2024-01-15T14:12:05;5.70;91.30
27803;DHT22;15182;48.174;11.562;2024-01-15T14:14:33;5.70;91.40
27803;DHT22;15182;48.174;11.562;2024-01-15T14:17:01;5.70;91.80
27803;DHT22;15182;48.174;11.562;2024-01-15T14:19:31;5.70;91.50
27803;DHT22;15182;48.174;11.562;2024-01-15T14:21:59;5.70;91.70
27803;DHT22;15182;48.174;11.562;2024-01-15T14:24:27;5.60;91.70
27803;DHT22;15182;48.174;11.562;2024-01-15T14:26:55;5.60;91.80
27803;DHT22;15182;48.174;11.562;2024-01-15T14:29:23;5.60;91.90
27803;DHT22;15182;48.174;11.562;2024-01-15T14:31:52;5.50;91.90
27803;DHT22;15182;48.174;11.562;2024-01-15T14:34:20;5.50;92.40
27803;DHT22;15182;48.174;11.562;2024-01-15T14:36:51;5.50;92.00
27803;DHT22;15182;48.174;11.562;2024-01-15T14:39:20;5.50;92.50
27803;DHT22;15182;48.174;11.562;2024-01-15T14:41:48;5.50;92.30
27803;DHT22;15182;48.174;11.562;2024-01-15T14:44:15;5.50;92.30
27803;DHT22;15182;48.174;11.562;2024-01-15T14:46:43;5.50;92.40
27803;DHT22;15182;48.174;11.562;2024-01-15T14:49:12;5.50;92.40
27803;DHT22;15182;48.174;11.562;2024-01-15T14:51:40;5.50;92.40
27803;DHT22;15182;48.174;11.562;2024-01-15T14:54:10;5.40;92.40
27803;DHT22;15182;48.174;11.562;2024-01-15T14:56:38;5.40;92.40
27803;DHT22;15182;48.174;11.562;2024-01-15T14:59:05;5.40;92.40
27803;DHT22;15182;48.174;11.562;2024-01-15T15:01:33;5.40;92.40
27803;DHT22;15182;48.174;11.562;2024-01-15T15:04:01;5.40;92.40
27803;DHT22;15182;48.174;11.562;2024-01-15T15:06:29;5.40;92.30
27803;DHT22;15182;48.174;11.562;2024-01-15T15:08:57;5.40;92.30
27803;DHT22;15182;48.174;11.562;2024-01-15T15:11:27;5.40;92.20
27803;DHT22;15182;48.174;11.562;2024-01-15T15:13:55;5.30;92.20
27803;DHT22;15182;48.174;11.562;2024-01-15T15:16:23;5.30;92.10
27803;DHT22;15182;48.174;11.562;2024-01-15T15:18:50;5.30;92.10
27803;DHT22;15182;48.174;11.562;2024-01-15T15:21:18;5.30;92.10
27803;DHT22;15182;48.174;11.562;2024-01-15T15:23:46;5.30;92.10
27803;DHT22;15182;48.174;11.562;2024-01-15T15:26:14;5.30;92.10
27803;DHT22;15182;48.174;11.562;2024-01-15T15:28:44;5.30;92.10
27803;DHT22;15182;48.174;11.562;2024-01-15T15:31:12;5.30;92.10
27803;DHT22;15182;48.174;11.562;2024-01-15T15:33:39;5.20;92.10
27803;DHT22;15182;48.174;11.562;2024-01-15T15:36:07;5.30;92.10
27803;DHT22;15182;48.174;11.562;2024-01-15T15:38:35;5.20;92.10
27803;DHT22;15182;48.174;11.562;2024-01-15T15:41:04;5.20;92.10